DW2959 Murcia ES current weather conditions

sailwx.info

Wind from 107

Air temperature 12.8° C
Dewpoint 8.6° C

Last reported at 2017-Feb-23 03:53 UTC.
Time now 2017-Feb-23 04:43 UTC

Location: N 38°00' W 001°02'.
View on Google Maps.

See reports from other nearby stations

  
Tides and Currents Weather Stations Pressure Air Temp Water Temp Dewpoint Dewpoint Depression Visibility Wind Speed Wind Dir Waves Ship Positions
date/time (UTC)wind fromknots sea level pressurealtimeterstation pressurevisibilityair tempwater tempwave heightnotes
2017-Feb-23 03:53 107 12.8
2017-Feb-23 03:38 123 12.2
2017-Feb-23 03:23 300 1 gusting 5 11.7
2017-Feb-23 03:08 223 1 gusting 4 11.7
2017-Feb-23 02:53 087 0 gusting 5 12.2
2017-Feb-23 02:41 102 2 gusting 5 12.2
2017-Feb-23 02:23 234 12.8
2017-Feb-23 02:07 207 12.8
2017-Feb-23 01:52 227 3 gusting 7 12.2
2017-Feb-23 01:37 267 12.2
2017-Feb-23 01:23 235 12.2
2017-Feb-23 01:08 235 12.8
2017-Feb-23 00:52 197 0 gusting 3 12.8
2017-Feb-23 00:37 197 2 gusting 4 12.2
2017-Feb-23 00:22 259 12.2
2017-Feb-23 00:06 259 12.8
2017-Feb-22 23:52 259 12.8
2017-Feb-22 23:37 258 13.3
2017-Feb-22 23:21 258 13.3
2017-Feb-22 23:07 258 13.3
2017-Feb-22 22:51 258 13.9
2017-Feb-22 22:36 225 3 gusting 9 13.3
2017-Feb-22 22:23 221 13.3
2017-Feb-22 22:06 206 12.8
2017-Feb-22 21:51 204 12.8
2017-Feb-22 21:36 153 12.8
2017-Feb-22 21:21 153 12.8
2017-Feb-22 21:19 153 12.8
2017-Feb-22 20:51 078 13.9
2017-Feb-22 20:35 078 13.9
2017-Feb-22 20:21 078 14.4
2017-Feb-22 20:05 078 14.4
2017-Feb-22 19:52 078 14.4
2017-Feb-22 19:35 080 15.0
2017-Feb-22 19:21 081 15.0
2017-Feb-22 19:05 080 15.0
2017-Feb-22 18:50 080 15.0
2017-Feb-22 18:34 080 15.0
2017-Feb-22 18:25 080 15.0
2017-Feb-22 18:05 073 15.0
2017-Feb-22 17:54 093 0 gusting 5 15.6
2017-Feb-22 17:20 067 1 gusting 5 16.1
2017-Feb-22 17:04 080 2 gusting 7 16.1
2017-Feb-22 16:49 058 3 gusting 8 16.7
2017-Feb-22 16:34 077 4 gusting 9 16.7
2017-Feb-22 16:17 074 4 gusting 10 17.2
2017-Feb-22 16:03 108 6 gusting 11 17.2
2017-Feb-22 15:50 093 3 gusting 10 17.2
2017-Feb-22 15:32 091 4 gusting 8 17.2
2017-Feb-22 15:17 088 5 gusting 12 17.8
2017-Feb-22 15:02 078 4 gusting 9 17.8
2017-Feb-22 14:47 090 6 gusting 11 17.8
2017-Feb-22 14:36 069 5 gusting 11 17.8
2017-Feb-22 14:16 039 5 gusting 12 17.8
2017-Feb-22 14:02 090 2 gusting 13 17.8
2017-Feb-22 13:47 087 6 gusting 12 17.8
2017-Feb-22 13:31 086 5 gusting 12 17.8
2017-Feb-22 13:16 066 4 gusting 13 17.8
2017-Feb-22 13:01 061 4 gusting 13 17.8
2017-Feb-22 12:45 087 6 gusting 9 17.8
2017-Feb-22 12:31 078 3 gusting 10 17.2
2017-Feb-22 12:16 228 16.7
2017-Feb-22 12:01 228 16.1
2017-Feb-22 11:45 228 15.6
2017-Feb-22 11:30 250 1 gusting 4 15.0
2017-Feb-22 11:20 227 14.4
2017-Feb-22 11:00 223 1 gusting 6 13.9
2017-Feb-22 10:45 215 1 gusting 7 13.3
2017-Feb-22 10:15 221 3 gusting 9 12.8
2017-Feb-22 09:58 238 3 gusting 9 12.2
2017-Feb-22 09:43 221 5 gusting 8 11.7
2017-Feb-22 09:28 246 2 gusting 11 11.7
2017-Feb-22 09:13 234 3 gusting 7 11.1
2017-Feb-22 08:42 229 6 gusting 12 10.6
2017-Feb-22 08:29 213 5 gusting 12 10.6
2017-Feb-22 08:15 286 2 gusting 6 10.6
2017-Feb-22 08:05 241 2 gusting 7 10.0
2017-Feb-22 07:42 233 2 gusting 7 10.0
2017-Feb-22 07:34 227 1 gusting 7 10.0
2017-Feb-22 07:13 263 9.4
2017-Feb-22 06:58 234 3 gusting 8 9.4
2017-Feb-22 06:41 246 1 gusting 10 9.4
2017-Feb-22 06:26 250 0 gusting 6 9.4
2017-Feb-22 06:12 235 2 gusting 6 9.4
2017-Feb-22 05:57 252 2 gusting 8 9.4
2017-Feb-22 05:41 252 4 gusting 9 9.4
2017-Feb-22 05:26 234 5 gusting 9 9.4
2017-Feb-22 05:10 235 6 gusting 12 10.0
2017-Feb-22 04:56 247 3 gusting 8 10.0
2017-Feb-22 04:41 223 5 gusting 12 10.0
2017-Feb-22 04:26 252 2 gusting 8 10.0
2017-Feb-22 04:10 251 2 gusting 6 10.0
2017-Feb-22 03:55 242 10.0
2017-Feb-22 03:42 251 0 gusting 6 10.0
2017-Feb-22 03:25 242 2 gusting 6 10.0
2017-Feb-22 03:09 250 0 gusting 6 10.0
2017-Feb-22 02:55 237 5 gusting 10 10.0
2017-Feb-22 02:40 229 2 gusting 7 10.0
2017-Feb-22 02:24 233 1 gusting 6 10.0
2017-Feb-22 02:09 242 2 gusting 6 10.0
2017-Feb-22 01:54 259 4 gusting 10 10.0
2017-Feb-22 01:38 251 3 gusting 9 10.6
2017-Feb-22 01:29 261 4 gusting 7 10.0
2017-Feb-22 01:08 245 0 gusting 4 10.0
2017-Feb-22 00:54 259 1 gusting 8 10.0
2017-Feb-22 00:38 236 4 gusting 8 10.0
2017-Feb-22 00:23 241 1 gusting 7 10.0
2017-Feb-22 00:08 252 10.6
2017-Feb-21 23:53 242 0 gusting 4 10.6
2017-Feb-21 23:38 238 10.6
2017-Feb-21 23:23 232 2 gusting 6 10.6
2017-Feb-21 23:07 222 0 gusting 3 10.0
2017-Feb-21 22:53 221 10.0
2017-Feb-21 22:37 220 10.0
2017-Feb-21 22:22 177 9.4
2017-Feb-21 22:06 084 9.4
2017-Feb-21 21:52 080 9.4
2017-Feb-21 21:36 080 9.4
2017-Feb-21 21:21 080 10.0
2017-Feb-21 21:08 079 10.6
2017-Feb-21 20:51 079 11.1
2017-Feb-21 20:36 079 11.1
2017-Feb-21 20:21 079 11.7
2017-Feb-21 20:06 079 11.7
2017-Feb-21 19:51 079 12.2
2017-Feb-21 19:36 079 12.2
2017-Feb-21 19:21 079 12.2
2017-Feb-21 19:07 079 12.2
2017-Feb-21 18:51 079 12.8
2017-Feb-21 18:37 079 13.3
2017-Feb-21 18:20 079 13.3
2017-Feb-21 17:51 077 0 gusting 6 13.9
2017-Feb-21 17:35 090 1 gusting 6 14.4
2017-Feb-21 17:20 096 2 gusting 7 14.4
2017-Feb-21 17:06 079 5 gusting 10 15.0
2017-Feb-21 16:50 080 3 gusting 10 15.0
2017-Feb-21 16:35 084 5 gusting 13 15.6
2017-Feb-21 16:20 084 5 gusting 10 15.6
2017-Feb-21 16:05 071 4 gusting 11 16.1
2017-Feb-21 15:55 086 5 gusting 12 16.1
2017-Feb-21 15:35 067 4 gusting 10 16.7
2017-Feb-21 15:20 087 3 gusting 12 16.7
2017-Feb-21 15:08 102 5 gusting 15 16.7
2017-Feb-21 14:52 067 6 gusting 12 16.7
2017-Feb-21 14:41 091 4 gusting 11 16.7
2017-Feb-21 14:19 086 6 gusting 12 16.7
2017-Feb-21 14:05 076 5 gusting 13 17.2
2017-Feb-21 13:50 057 6 gusting 13 16.7
2017-Feb-21 13:34 073 4 gusting 13 17.2
2017-Feb-21 13:20 076 5 gusting 13 17.2
2017-Feb-21 13:06 105 5 gusting 13 17.2
2017-Feb-21 12:47 055 4 gusting 14 17.2
2017-Feb-21 12:38 042 5 gusting 13 16.7
2017-Feb-21 12:21 083 6 gusting 13 16.7
2017-Feb-21 12:03 032 6 gusting 13 16.7
2017-Feb-21 11:51 018 9 gusting 14 16.1
2017-Feb-21 11:35 090 1 gusting 9 15.6
2017-Feb-21 11:18 044 3 gusting 9 15.6
2017-Feb-21 11:02 019 2 gusting 9 15.0
2017-Feb-21 10:51 038 2 gusting 9 14.4
2017-Feb-21 10:32 255 13.3
2017-Feb-21 10:16 229 2 gusting 7 12.8
2017-Feb-21 10:01 238 0 gusting 6 12.8
2017-Feb-21 09:46 263 0 gusting 5 12.2
2017-Feb-21 09:32 273 0 gusting 6 11.7
2017-Feb-21 09:22 214 2 gusting 6 11.1
2017-Feb-21 09:00 227 2 gusting 6 10.6
2017-Feb-21 08:46 261 1 gusting 6 10.6
2017-Feb-21 08:32 233 1 gusting 8 10.0
2017-Feb-21 08:16 221 2 gusting 6 10.0
2017-Feb-21 08:02 238 1 gusting 6 9.4
2017-Feb-21 07:45 236 1 gusting 6 9.4
2017-Feb-21 07:30 234 8.9
2017-Feb-21 07:15 219 8.9
2017-Feb-21 06:59 219 8.9
2017-Feb-21 06:44 215 8.9
2017-Feb-21 06:29 215 9.4
2017-Feb-21 06:14 215 9.4
2017-Feb-21 06:04 238 9.4
2017-Feb-21 05:43 238 0 gusting 2 9.4
2017-Feb-21 05:33 238 9.4
2017-Feb-21 05:13 238 10.0
2017-Feb-21 05:00 238 10.0
2017-Feb-21 04:43 230 0 gusting 5 10.0
2017-Feb-21 04:27 222 0 gusting 3 10.0
2017-Feb-21 04:13 229 10.0